sensor_id;sensor_type;location;lat;lon;timestamp;P1;durP1;ratioP1;P2;durP2;ratioP2
27491;SDS011;14927;51.210;6.838;2022-09-09T00:00:11;2.03;;;0.57;;
27491;SDS011;14927;51.210;6.838;2022-09-09T00:03:06;1.45;;;0.50;;
27491;SDS011;14927;51.210;6.838;2022-09-09T00:06:01;2.03;;;0.40;;
27491;SDS011;14927;51.210;6.838;2022-09-09T00:15:35;1.38;;;0.40;;
27491;SDS011;14927;51.210;6.838;2022-09-09T00:18:40;2.05;;;0.40;;
27491;SDS011;14927;51.210;6.838;2022-09-09T00:21:37;1.13;;;0.45;;
27491;SDS011;14927;51.210;6.838;2022-09-09T00:24:45;3.47;;;0.60;;
27491;SDS011;14927;51.210;6.838;2022-09-09T00:30:34;3.88;;;0.52;;
27491;SDS011;14927;51.210;6.838;2022-09-09T00:33:23;1.58;;;0.30;;
27491;SDS011;14927;51.210;6.838;2022-09-09T00:36:12;2.67;;;0.40;;
27491;SDS011;14927;51.210;6.838;2022-09-09T00:39:00;1.20;;;0.55;;
27491;SDS011;14927;51.210;6.838;2022-09-09T00:45:34;3.13;;;0.40;;
27491;SDS011;14927;51.210;6.838;2022-09-09T00:55:27;2.77;;;0.70;;
27491;SDS011;14927;51.210;6.838;2022-09-09T00:58:37;2.90;;;1.15;;
27491;SDS011;14927;51.210;6.838;2022-09-09T01:01:21;2.22;;;0.50;;
27491;SDS011;14927;51.210;6.838;2022-09-09T01:04:11;2.67;;;1.10;;
27491;SDS011;14927;51.210;6.838;2022-09-09T01:07:05;7.88;;;0.73;;
27491;SDS011;14927;51.210;6.838;2022-09-09T01:10:03;4.72;;;1.83;;
27491;SDS011;14927;51.210;6.838;2022-09-09T01:13:04;7.32;;;2.40;;
27491;SDS011;14927;51.210;6.838;2022-09-09T01:16:04;8.05;;;3.70;;
27491;SDS011;14927;51.210;6.838;2022-09-09T01:18:55;7.95;;;3.60;;
27491;SDS011;14927;51.210;6.838;2022-09-09T01:21:50;10.45;;;3.45;;
27491;SDS011;14927;51.210;6.838;2022-09-09T01:28:27;6.60;;;2.10;;
27491;SDS011;14927;51.210;6.838;2022-09-09T01:31:24;6.68;;;2.13;;
27491;SDS011;14927;51.210;6.838;2022-09-09T01:34:15;4.25;;;1.65;;
27491;SDS011;14927;51.210;6.838;2022-09-09T01:39:53;3.20;;;1.58;;
27491;SDS011;14927;51.210;6.838;2022-09-09T01:42:38;5.93;;;1.65;;
27491;SDS011;14927;51.210;6.838;2022-09-09T01:45:23;2.30;;;1.42;;
27491;SDS011;14927;51.210;6.838;2022-09-09T01:48:09;4.63;;;1.80;;
27491;SDS011;14927;51.210;6.838;2022-09-09T01:50:59;3.33;;;1.48;;
27491;SDS011;14927;51.210;6.838;2022-09-09T02:08:09;4.30;;;1.52;;
27491;SDS011;14927;51.210;6.838;2022-09-09T02:11:17;4.15;;;1.30;;
27491;SDS011;14927;51.210;6.838;2022-09-09T02:14:11;4.43;;;1.10;;
27491;SDS011;14927;51.210;6.838;2022-09-09T02:17:11;3.00;;;0.90;;
27491;SDS011;14927;51.210;6.838;2022-09-09T02:20:05;6.38;;;0.98;;
27491;SDS011;14927;51.210;6.838;2022-09-09T02:22:58;2.90;;;0.80;;
27491;SDS011;14927;51.210;6.838;2022-09-09T02:25:48;5.13;;;0.95;;
27491;SDS011;14927;51.210;6.838;2022-09-09T02:28:37;3.92;;;0.70;;
27491;SDS011;14927;51.210;6.838;2022-09-09T02:31:25;2.72;;;0.63;;
27491;SDS011;14927;51.210;6.838;2022-09-09T02:34:21;2.53;;;0.50;;
27491;SDS011;14927;51.210;6.838;2022-09-09T02:37:11;2.92;;;0.82;;
27491;SDS011;14927;51.210;6.838;2022-09-09T02:39:57;5.28;;;1.27;;
27491;SDS011;14927;51.210;6.838;2022-09-09T02:42:42;4.32;;;1.00;;
27491;SDS011;14927;51.210;6.838;2022-09-09T02:45:38;2.80;;;0.75;;
27491;SDS011;14927;51.210;6.838;2022-09-09T02:48:36;2.40;;;1.00;;
27491;SDS011;14927;51.210;6.838;2022-09-09T02:54:34;2.53;;;0.70;;
27491;SDS011;14927;51.210;6.838;2022-09-09T02:57:23;3.17;;;0.75;;
27491;SDS011;14927;51.210;6.838;2022-09-09T03:03:29;5.28;;;0.60;;
27491;SDS011;14927;51.210;6.838;2022-09-09T03:06:22;3.58;;;1.05;;
27491;SDS011;14927;51.210;6.838;2022-09-09T03:09:12;4.10;;;0.90;;
27491;SDS011;14927;51.210;6.838;2022-09-09T03:11:57;5.68;;;0.77;;
27491;SDS011;14927;51.210;6.838;2022-09-09T03:14:43;3.83;;;0.90;;
27491;SDS011;14927;51.210;6.838;2022-09-09T03:17:29;3.08;;;0.73;;
27491;SDS011;14927;51.210;6.838;2022-09-09T03:20:14;2.05;;;0.90;;
27491;SDS011;14927;51.210;6.838;2022-09-09T03:23:00;3.75;;;0.82;;
27491;SDS011;14927;51.210;6.838;2022-09-09T03:25:59;3.53;;;0.60;;
27491;SDS011;14927;51.210;6.838;2022-09-09T03:28:47;1.88;;;0.90;;
27491;SDS011;14927;51.210;6.838;2022-09-09T03:31:33;1.88;;;0.52;;
27491;SDS011;14927;51.210;6.838;2022-09-09T03:34:21;3.75;;;1.10;;
27491;SDS011;14927;51.210;6.838;2022-09-09T03:37:06;3.20;;;0.80;;
27491;SDS011;14927;51.210;6.838;2022-09-09T03:39:51;5.47;;;1.10;;
27491;SDS011;14927;51.210;6.838;2022-09-09T03:42:38;3.70;;;0.85;;
27491;SDS011;14927;51.210;6.838;2022-09-09T03:45:25;4.75;;;1.08;;
27491;SDS011;14927;51.210;6.838;2022-09-09T03:48:10;6.72;;;0.98;;
27491;SDS011;14927;51.210;6.838;2022-09-09T03:50:55;1.67;;;0.82;;
27491;SDS011;14927;51.210;6.838;2022-09-09T03:53:41;3.65;;;0.70;;
27491;SDS011;14927;51.210;6.838;2022-09-09T03:56:39;5.03;;;0.80;;
27491;SDS011;14927;51.210;6.838;2022-09-09T03:59:29;8.65;;;1.80;;
27491;SDS011;14927;51.210;6.838;2022-09-09T04:02:16;5.45;;;1.38;;
27491;SDS011;14927;51.210;6.838;2022-09-09T04:05:07;3.72;;;0.70;;
27491;SDS011;14927;51.210;6.838;2022-09-09T04:07:53;3.58;;;0.98;;
27491;SDS011;14927;51.210;6.838;2022-09-09T04:10:40;6.25;;;1.02;;
27491;SDS011;14927;51.210;6.838;2022-09-09T04:13:25;3.85;;;0.95;;
27491;SDS011;14927;51.210;6.838;2022-09-09T04:16:11;3.90;;;0.70;;
27491;SDS011;14927;51.210;6.838;2022-09-09T04:18:57;6.32;;;1.20;;
27491;SDS011;14927;51.210;6.838;2022-09-09T04:21:42;6.57;;;1.05;;
27491;SDS011;14927;51.210;6.838;2022-09-09T04:24:27;5.40;;;1.15;;
27491;SDS011;14927;51.210;6.838;2022-09-09T04:27:23;3.60;;;1.25;;
27491;SDS011;14927;51.210;6.838;2022-09-09T04:30:15;3.85;;;0.98;;
27491;SDS011;14927;51.210;6.838;2022-09-09T04:33:03;3.72;;;1.02;;
27491;SDS011;14927;51.210;6.838;2022-09-09T04:38:40;4.50;;;1.10;;
27491;SDS011;14927;51.210;6.838;2022-09-09T04:41:27;3.92;;;1.02;;
27491;SDS011;14927;51.210;6.838;2022-09-09T04:44:15;3.63;;;1.20;;
27491;SDS011;14927;51.210;6.838;2022-09-09T04:47:05;3.55;;;1.20;;
27491;SDS011;14927;51.210;6.838;2022-09-09T04:49:58;4.18;;;1.55;;
27491;SDS011;14927;51.210;6.838;2022-09-09T04:52:43;4.55;;;1.20;;
27491;SDS011;14927;51.210;6.838;2022-09-09T04:55:34;4.53;;;1.90;;
27491;SDS011;14927;51.210;6.838;2022-09-09T04:58:22;4.97;;;1.75;;
27491;SDS011;14927;51.210;6.838;2022-09-09T05:01:10;5.57;;;1.42;;
27491;SDS011;14927;51.210;6.838;2022-09-09T05:04:08;6.47;;;1.27;;
27491;SDS011;14927;51.210;6.838;2022-09-09T05:06:53;5.82;;;1.35;;
27491;SDS011;14927;51.210;6.838;2022-09-09T05:09:40;6.85;;;1.10;;
27491;SDS011;14927;51.210;6.838;2022-09-09T05:12:25;5.43;;;1.45;;
27491;SDS011;14927;51.210;6.838;2022-09-09T05:15:26;8.40;;;1.60;;
27491;SDS011;14927;51.210;6.838;2022-09-09T05:18:21;5.15;;;1.25;;
27491;SDS011;14927;51.210;6.838;2022-09-09T05:21:07;5.90;;;1.20;;
27491;SDS011;14927;51.210;6.838;2022-09-09T05:24:03;5.80;;;1.15;;
27491;SDS011;14927;51.210;6.838;2022-09-09T05:26:58;5.57;;;1.15;;
27491;SDS011;14927;51.210;6.838;2022-09-09T05:29:45;8.15;;;1.35;;
27491;SDS011;14927;51.210;6.838;2022-09-09T05:32:32;3.38;;;1.23;;
27491;SDS011;14927;51.210;6.838;2022-09-09T05:35:22;8.55;;;1.52;;
27491;SDS011;14927;51.210;6.838;2022-09-09T05:38:15;4.85;;;1.70;;
27491;SDS011;14927;51.210;6.838;2022-09-09T05:41:02;5.25;;;1.20;;
27491;SDS011;14927;51.210;6.838;2022-09-09T05:43:55;5.03;;;1.10;;
27491;SDS011;14927;51.210;6.838;2022-09-09T05:46:40;4.30;;;1.20;;
27491;SDS011;14927;51.210;6.838;2022-09-09T05:49:25;4.80;;;1.23;;
27491;SDS011;14927;51.210;6.838;2022-09-09T05:52:16;8.88;;;1.42;;
27491;SDS011;14927;51.210;6.838;2022-09-09T05:55:07;4.85;;;1.30;;
27491;SDS011;14927;51.210;6.838;2022-09-09T05:58:05;7.05;;;1.42;;
27491;SDS011;14927;51.210;6.838;2022-09-09T06:00:51;6.70;;;1.42;;
27491;SDS011;14927;51.210;6.838;2022-09-09T06:03:37;6.88;;;1.50;;
27491;SDS011;14927;51.210;6.838;2022-09-09T06:06:26;3.65;;;0.85;;
27491;SDS011;14927;51.210;6.838;2022-09-09T06:09:21;7.35;;;1.40;;
27491;SDS011;14927;51.210;6.838;2022-09-09T06:12:06;3.70;;;1.00;;
27491;SDS011;14927;51.210;6.838;2022-09-09T06:15:05;3.92;;;1.50;;
27491;SDS011;14927;51.210;6.838;2022-09-09T06:17:56;4.97;;;1.30;;
27491;SDS011;14927;51.210;6.838;2022-09-09T06:23:42;4.20;;;1.10;;
27491;SDS011;14927;51.210;6.838;2022-09-09T06:26:35;4.90;;;1.35;;
27491;SDS011;14927;51.210;6.838;2022-09-09T06:29:24;8.10;;;1.55;;
27491;SDS011;14927;51.210;6.838;2022-09-09T06:32:27;4.72;;;1.50;;
27491;SDS011;14927;51.210;6.838;2022-09-09T06:35:12;4.88;;;1.15;;
27491;SDS011;14927;51.210;6.838;2022-09-09T06:38:20;6.25;;;1.05;;
27491;SDS011;14927;51.210;6.838;2022-09-09T06:41:19;2.67;;;0.95;;
27491;SDS011;14927;51.210;6.838;2022-09-09T06:44:07;7.22;;;1.05;;
27491;SDS011;14927;51.210;6.838;2022-09-09T06:46:55;4.90;;;1.08;;
27491;SDS011;14927;51.210;6.838;2022-09-09T06:49:42;3.83;;;0.80;;
27491;SDS011;14927;51.210;6.838;2022-09-09T06:52:27;4.68;;;0.90;;
27491;SDS011;14927;51.210;6.838;2022-09-09T06:55:15;6.10;;;1.25;;
27491;SDS011;14927;51.210;6.838;2022-09-09T06:58:01;12.13;;;1.00;;
27491;SDS011;14927;51.210;6.838;2022-09-09T07:04:53;2.15;;;0.70;;
27491;SDS011;14927;51.210;6.838;2022-09-09T07:07:41;4.00;;;1.02;;
27491;SDS011;14927;51.210;6.838;2022-09-09T07:10:52;4.63;;;0.82;;
27491;SDS011;14927;51.210;6.838;2022-09-09T07:13:53;4.10;;;1.00;;
27491;SDS011;14927;51.210;6.838;2022-09-09T07:16:43;3.53;;;0.70;;
27491;SDS011;14927;51.210;6.838;2022-09-09T07:19:37;9.35;;;1.02;;
27491;SDS011;14927;51.210;6.838;2022-09-09T07:22:28;4.50;;;1.15;;
27491;SDS011;14927;51.210;6.838;2022-09-09T07:25:21;5.32;;;1.05;;
27491;SDS011;14927;51.210;6.838;2022-09-09T07:28:08;6.15;;;1.00;;
27491;SDS011;14927;51.210;6.838;2022-09-09T07:30:57;3.33;;;0.98;;
27491;SDS011;14927;51.210;6.838;2022-09-09T07:33:48;6.18;;;1.00;;
27491;SDS011;14927;51.210;6.838;2022-09-09T07:36:34;2.83;;;0.70;;
27491;SDS011;14927;51.210;6.838;2022-09-09T07:39:22;5.75;;;1.40;;
27491;SDS011;14927;51.210;6.838;2022-09-09T07:42:10;3.50;;;0.65;;
27491;SDS011;14927;51.210;6.838;2022-09-09T07:45:01;6.38;;;1.10;;
27491;SDS011;14927;51.210;6.838;2022-09-09T07:47:52;9.13;;;1.23;;
27491;SDS011;14927;51.210;6.838;2022-09-09T07:50:43;4.55;;;0.80;;
27491;SDS011;14927;51.210;6.838;2022-09-09T07:53:39;3.42;;;0.80;;
27491;SDS011;14927;51.210;6.838;2022-09-09T07:56:31;2.93;;;1.23;;
27491;SDS011;14927;51.210;6.838;2022-09-09T07:59:17;4.53;;;0.90;;
27491;SDS011;14927;51.210;6.838;2022-09-09T08:02:47;5.18;;;0.80;;
27491;SDS011;14927;51.210;6.838;2022-09-09T08:05:41;5.05;;;1.08;;
27491;SDS011;14927;51.210;6.838;2022-09-09T08:09:07;4.25;;;0.90;;
27491;SDS011;14927;51.210;6.838;2022-09-09T08:12:10;4.07;;;1.00;;
27491;SDS011;14927;51.210;6.838;2022-09-09T08:15:17;5.05;;;1.23;;
27491;SDS011;14927;51.210;6.838;2022-09-09T08:18:07;5.75;;;1.20;;
27491;SDS011;14927;51.210;6.838;2022-09-09T08:21:10;7.25;;;1.48;;
27491;SDS011;14927;51.210;6.838;2022-09-09T08:24:04;5.38;;;0.90;;
27491;SDS011;14927;51.210;6.838;2022-09-09T08:26:54;2.92;;;1.00;;
27491;SDS011;14927;51.210;6.838;2022-09-09T08:29:42;4.50;;;1.20;;
27491;SDS011;14927;51.210;6.838;2022-09-09T08:32:30;7.82;;;0.85;;
27491;SDS011;14927;51.210;6.838;2022-09-09T08:35:15;4.80;;;0.80;;
27491;SDS011;14927;51.210;6.838;2022-09-09T08:38:04;3.72;;;0.70;;
27491;SDS011;14927;51.210;6.838;2022-09-09T08:40:59;5.05;;;1.00;;
27491;SDS011;14927;51.210;6.838;2022-09-09T08:47:31;3.45;;;1.00;;
27491;SDS011;14927;51.210;6.838;2022-09-09T08:50:52;4.15;;;0.80;;
27491;SDS011;14927;51.210;6.838;2022-09-09T08:53:46;5.20;;;0.77;;
27491;SDS011;14927;51.210;6.838;2022-09-09T08:56:35;5.10;;;1.27;;
27491;SDS011;14927;51.210;6.838;2022-09-09T08:59:20;4.95;;;0.85;;
27491;SDS011;14927;51.210;6.838;2022-09-09T09:02:14;7.45;;;1.08;;
27491;SDS011;14927;51.210;6.838;2022-09-09T09:08:33;4.18;;;1.00;;
27491;SDS011;14927;51.210;6.838;2022-09-09T09:11:49;3.30;;;0.82;;
27491;SDS011;14927;51.210;6.838;2022-09-09T09:14:40;4.95;;;1.05;;
27491;SDS011;14927;51.210;6.838;2022-09-09T09:17:31;7.35;;;1.08;;
27491;SDS011;14927;51.210;6.838;2022-09-09T09:20:18;6.03;;;1.65;;
27491;SDS011;14927;51.210;6.838;2022-09-09T09:23:19;3.78;;;0.85;;
27491;SDS011;14927;51.210;6.838;2022-09-09T09:26:09;4.20;;;0.90;;
27491;SDS011;14927;51.210;6.838;2022-09-09T09:29:00;5.35;;;1.10;;
27491;SDS011;14927;51.210;6.838;2022-09-09T09:32:16;2.78;;;0.68;;
27491;SDS011;14927;51.210;6.838;2022-09-09T09:35:08;3.05;;;0.90;;
27491;SDS011;14927;51.210;6.838;2022-09-09T09:38:07;1.92;;;0.68;;
27491;SDS011;14927;51.210;6.838;2022-09-09T09:41:09;1.70;;;0.55;;
27491;SDS011;14927;51.210;6.838;2022-09-09T09:43:56;2.05;;;0.45;;
27491;SDS011;14927;51.210;6.838;2022-09-09T09:46:43;2.22;;;0.70;;
27491;SDS011;14927;51.210;6.838;2022-09-09T09:49:31;4.32;;;0.88;;
27491;SDS011;14927;51.210;6.838;2022-09-09T09:52:16;4.10;;;0.90;;
27491;SDS011;14927;51.210;6.838;2022-09-09T09:55:12;6.75;;;1.23;;
27491;SDS011;14927;51.210;6.838;2022-09-09T09:58:15;5.47;;;0.90;;
27491;SDS011;14927;51.210;6.838;2022-09-09T10:01:17;5.13;;;1.50;;
27491;SDS011;14927;51.210;6.838;2022-09-09T10:04:20;2.70;;;0.63;;
27491;SDS011;14927;51.210;6.838;2022-09-09T10:07:10;4.18;;;0.80;;
27491;SDS011;14927;51.210;6.838;2022-09-09T10:10:04;3.30;;;0.60;;
27491;SDS011;14927;51.210;6.838;2022-09-09T10:13:10;2.58;;;0.50;;
27491;SDS011;14927;51.210;6.838;2022-09-09T10:19:35;2.42;;;0.70;;
27491;SDS011;14927;51.210;6.838;2022-09-09T10:22:27;2.28;;;0.88;;
27491;SDS011;14927;51.210;6.838;2022-09-09T10:38:30;3.65;;;0.85;;
27491;SDS011;14927;51.210;6.838;2022-09-09T10:41:44;2.35;;;1.10;;
27491;SDS011;14927;51.210;6.838;2022-09-09T10:54:55;3.70;;;0.70;;
27491;SDS011;14927;51.210;6.838;2022-09-09T10:58:04;2.30;;;0.70;;
27491;SDS011;14927;51.210;6.838;2022-09-09T11:00:59;1.55;;;0.45;;
27491;SDS011;14927;51.210;6.838;2022-09-09T11:04:17;1.92;;;0.50;;
27491;SDS011;14927;51.210;6.838;2022-09-09T11:07:35;2.20;;;0.50;;
27491;SDS011;14927;51.210;6.838;2022-09-09T11:17:01;2.15;;;0.60;;
27491;SDS011;14927;51.210;6.838;2022-09-09T11:19:50;5.55;;;0.85;;
27491;SDS011;14927;51.210;6.838;2022-09-09T11:22:55;2.40;;;0.82;;
27491;SDS011;14927;51.210;6.838;2022-09-09T11:25:56;3.97;;;0.50;;
27491;SDS011;14927;51.210;6.838;2022-09-09T11:29:07;4.10;;;0.75;;
27491;SDS011;14927;51.210;6.838;2022-09-09T11:41:19;4.93;;;0.70;;
27491;SDS011;14927;51.210;6.838;2022-09-09T11:44:11;2.45;;;0.90;;
27491;SDS011;14927;51.210;6.838;2022-09-09T11:47:02;1.77;;;0.63;;
27491;SDS011;14927;51.210;6.838;2022-09-09T11:49:47;6.10;;;0.70;;
27491;SDS011;14927;51.210;6.838;2022-09-09T11:52:36;2.83;;;0.60;;
27491;SDS011;14927;51.210;6.838;2022-09-09T11:55:27;1.77;;;0.50;;
27491;SDS011;14927;51.210;6.838;2022-09-09T11:58:17;3.35;;;0.63;;
27491;SDS011;14927;51.210;6.838;2022-09-09T12:05:06;0.98;;;0.40;;
27491;SDS011;14927;51.210;6.838;2022-09-09T12:08:01;1.15;;;0.60;;
27491;SDS011;14927;51.210;6.838;2022-09-09T12:14:20;1.33;;;0.50;;
27491;SDS011;14927;51.210;6.838;2022-09-09T12:17:19;2.00;;;0.50;;
27491;SDS011;14927;51.210;6.838;2022-09-09T12:20:13;3.05;;;0.70;;
27491;SDS011;14927;51.210;6.838;2022-09-09T12:23:18;1.95;;;0.70;;
27491;SDS011;14927;51.210;6.838;2022-09-09T12:33:11;4.47;;;0.75;;
27491;SDS011;14927;51.210;6.838;2022-09-09T12:36:21;4.22;;;0.70;;
27491;SDS011;14927;51.210;6.838;2022-09-09T12:39:18;3.55;;;0.73;;
27491;SDS011;14927;51.210;6.838;2022-09-09T12:42:16;1.77;;;0.50;;
27491;SDS011;14927;51.210;6.838;2022-09-09T12:45:14;3.83;;;0.63;;
27491;SDS011;14927;51.210;6.838;2022-09-09T12:48:10;1.48;;;0.50;;
27491;SDS011;14927;51.210;6.838;2022-09-09T12:50:59;2.58;;;0.90;;
27491;SDS011;14927;51.210;6.838;2022-09-09T12:53:44;4.90;;;1.00;;
27491;SDS011;14927;51.210;6.838;2022-09-09T12:56:30;2.67;;;0.73;;
27491;SDS011;14927;51.210;6.838;2022-09-09T12:59:23;2.30;;;0.73;;
27491;SDS011;14927;51.210;6.838;2022-09-09T13:02:18;5.70;;;1.33;;
27491;SDS011;14927;51.210;6.838;2022-09-09T13:05:13;4.38;;;1.05;;
27491;SDS011;14927;51.210;6.838;2022-09-09T13:08:02;1.85;;;0.60;;
27491;SDS011;14927;51.210;6.838;2022-09-09T13:13:39;1.95;;;0.80;;
27491;SDS011;14927;51.210;6.838;2022-09-09T13:16:26;1.27;;;0.45;;
27491;SDS011;14927;51.210;6.838;2022-09-09T13:19:16;4.03;;;0.80;;
27491;SDS011;14927;51.210;6.838;2022-09-09T13:22:11;2.80;;;0.65;;
27491;SDS011;14927;51.210;6.838;2022-09-09T13:28:00;1.38;;;0.50;;
27491;SDS011;14927;51.210;6.838;2022-09-09T13:31:23;3.95;;;0.70;;
27491;SDS011;14927;51.210;6.838;2022-09-09T13:34:30;2.05;;;0.70;;
27491;SDS011;14927;51.210;6.838;2022-09-09T13:37:38;2.30;;;0.90;;
27491;SDS011;14927;51.210;6.838;2022-09-09T13:40:22;2.67;;;0.70;;
27491;SDS011;14927;51.210;6.838;2022-09-09T13:43:14;4.28;;;0.60;;
27491;SDS011;14927;51.210;6.838;2022-09-09T13:49:22;3.75;;;0.73;;
27491;SDS011;14927;51.210;6.838;2022-09-09T13:52:10;1.70;;;0.52;;
27491;SDS011;14927;51.210;6.838;2022-09-09T13:55:03;3.30;;;0.47;;
27491;SDS011;14927;51.210;6.838;2022-09-09T13:57:51;2.38;;;0.80;;
27491;SDS011;14927;51.210;6.838;2022-09-09T14:00:44;2.70;;;0.55;;
27491;SDS011;14927;51.210;6.838;2022-09-09T14:03:30;2.67;;;0.70;;
27491;SDS011;14927;51.210;6.838;2022-09-09T14:06:14;1.13;;;0.40;;
27491;SDS011;14927;51.210;6.838;2022-09-09T14:08:59;1.67;;;0.60;;
27491;SDS011;14927;51.210;6.838;2022-09-09T14:11:44;3.42;;;0.88;;
27491;SDS011;14927;51.210;6.838;2022-09-09T14:14:32;3.22;;;1.25;;
27491;SDS011;14927;51.210;6.838;2022-09-09T14:17:16;4.05;;;0.98;;
27491;SDS011;14927;51.210;6.838;2022-09-09T14:20:04;1.42;;;0.50;;
27491;SDS011;14927;51.210;6.838;2022-09-09T14:22:51;1.60;;;0.60;;
27491;SDS011;14927;51.210;6.838;2022-09-09T14:25:38;2.85;;;0.70;;
27491;SDS011;14927;51.210;6.838;2022-09-09T14:31:12;1.38;;;0.52;;
27491;SDS011;14927;51.210;6.838;2022-09-09T14:34:01;4.10;;;0.90;;
27491;SDS011;14927;51.210;6.838;2022-09-09T14:36:45;2.55;;;0.60;;
27491;SDS011;14927;51.210;6.838;2022-09-09T14:39:33;4.30;;;0.70;;
27491;SDS011;14927;51.210;6.838;2022-09-09T14:42:17;1.58;;;0.40;;
27491;SDS011;14927;51.210;6.838;2022-09-09T14:45:02;0.65;;;0.20;;
27491;SDS011;14927;51.210;6.838;2022-09-09T14:47:49;0.95;;;0.30;;
27491;SDS011;14927;51.210;6.838;2022-09-09T14:50:33;2.47;;;0.75;;
27491;SDS011;14927;51.210;6.838;2022-09-09T14:53:20;2.15;;;0.50;;
27491;SDS011;14927;51.210;6.838;2022-09-09T14:56:06;2.42;;;0.30;;
27491;SDS011;14927;51.210;6.838;2022-09-09T14:58:57;3.38;;;0.47;;
27491;SDS011;14927;51.210;6.838;2022-09-09T15:01:44;1.50;;;0.47;;
27491;SDS011;14927;51.210;6.838;2022-09-09T15:04:29;4.13;;;0.60;;
27491;SDS011;14927;51.210;6.838;2022-09-09T15:07:13;1.30;;;0.40;;
27491;SDS011;14927;51.210;6.838;2022-09-09T15:09:58;2.33;;;0.52;;
27491;SDS011;14927;51.210;6.838;2022-09-09T15:12:49;1.63;;;0.43;;
27491;SDS011;14927;51.210;6.838;2022-09-09T15:18:38;1.02;;;0.40;;
27491;SDS011;14927;51.210;6.838;2022-09-09T15:21:45;2.15;;;0.43;;
27491;SDS011;14927;51.210;6.838;2022-09-09T15:24:34;1.25;;;0.65;;
27491;SDS011;14927;51.210;6.838;2022-09-09T15:27:21;1.25;;;0.50;;
27491;SDS011;14927;51.210;6.838;2022-09-09T15:31:31;4.20;;;1.00;;
27491;SDS011;14927;51.210;6.838;2022-09-09T15:34:19;0.70;;;0.40;;
27491;SDS011;14927;51.210;6.838;2022-09-09T15:37:04;1.17;;;0.77;;
27491;SDS011;14927;51.210;6.838;2022-09-09T15:39:56;1.70;;;0.70;;
27491;SDS011;14927;51.210;6.838;2022-09-09T15:43:54;2.90;;;0.90;;
27491;SDS011;14927;51.210;6.838;2022-09-09T15:46:50;2.90;;;0.88;;
27491;SDS011;14927;51.210;6.838;2022-09-09T15:49:57;2.70;;;0.80;;
27491;SDS011;14927;51.210;6.838;2022-09-09T15:53:11;4.50;;;1.08;;
27491;SDS011;14927;51.210;6.838;2022-09-09T15:55:58;2.33;;;0.93;;
27491;SDS011;14927;51.210;6.838;2022-09-09T15:58:45;3.43;;;1.40;;
27491;SDS011;14927;51.210;6.838;2022-09-09T16:01:31;3.88;;;1.17;;
27491;SDS011;14927;51.210;6.838;2022-09-09T16:04:17;5.32;;;1.83;;
27491;SDS011;14927;51.210;6.838;2022-09-09T16:07:07;5.03;;;1.33;;
27491;SDS011;14927;51.210;6.838;2022-09-09T16:09:51;4.03;;;1.20;;
27491;SDS011;14927;51.210;6.838;2022-09-09T16:12:36;2.83;;;1.10;;
27491;SDS011;14927;51.210;6.838;2022-09-09T16:15:20;3.20;;;1.13;;
27491;SDS011;14927;51.210;6.838;2022-09-09T16:18:06;3.20;;;0.85;;
27491;SDS011;14927;51.210;6.838;2022-09-09T16:20:54;2.60;;;0.93;;
27491;SDS011;14927;51.210;6.838;2022-09-09T16:23:39;5.60;;;1.63;;
27491;SDS011;14927;51.210;6.838;2022-09-09T16:26:23;3.28;;;1.13;;
27491;SDS011;14927;51.210;6.838;2022-09-09T16:29:08;3.13;;;1.20;;
27491;SDS011;14927;51.210;6.838;2022-09-09T16:31:53;2.33;;;0.90;;
27491;SDS011;14927;51.210;6.838;2022-09-09T16:34:38;1.48;;;0.60;;
27491;SDS011;14927;51.210;6.838;2022-09-09T16:37:23;3.60;;;0.95;;
27491;SDS011;14927;51.210;6.838;2022-09-09T16:40:08;2.60;;;1.20;;
27491;SDS011;14927;51.210;6.838;2022-09-09T16:42:53;2.15;;;0.65;;
27491;SDS011;14927;51.210;6.838;2022-09-09T16:45:43;2.08;;;0.90;;
27491;SDS011;14927;51.210;6.838;2022-09-09T16:48:32;2.00;;;0.50;;
27491;SDS011;14927;51.210;6.838;2022-09-09T16:51:17;2.67;;;0.95;;
27491;SDS011;14927;51.210;6.838;2022-09-09T16:54:09;4.38;;;1.25;;
27491;SDS011;14927;51.210;6.838;2022-09-09T16:56:54;3.05;;;1.15;;
27491;SDS011;14927;51.210;6.838;2022-09-09T16:59:39;4.13;;;1.17;;
27491;SDS011;14927;51.210;6.838;2022-09-09T17:02:23;2.75;;;0.95;;
27491;SDS011;14927;51.210;6.838;2022-09-09T17:05:08;3.20;;;1.30;;
27491;SDS011;14927;51.210;6.838;2022-09-09T17:07:53;6.07;;;1.25;;
27491;SDS011;14927;51.210;6.838;2022-09-09T17:10:40;5.78;;;1.75;;
27491;SDS011;14927;51.210;6.838;2022-09-09T17:13:25;3.58;;;1.67;;
27491;SDS011;14927;51.210;6.838;2022-09-09T17:16:10;6.45;;;1.23;;
27491;SDS011;14927;51.210;6.838;2022-09-09T17:18:57;2.97;;;1.17;;
27491;SDS011;14927;51.210;6.838;2022-09-09T17:21:47;3.60;;;1.40;;
27491;SDS011;14927;51.210;6.838;2022-09-09T17:24:32;3.33;;;1.58;;
27491;SDS011;14927;51.210;6.838;2022-09-09T17:27:18;6.50;;;2.20;;
27491;SDS011;14927;51.210;6.838;2022-09-09T17:30:03;7.45;;;2.10;;
27491;SDS011;14927;51.210;6.838;2022-09-09T17:32:49;3.90;;;1.83;;
27491;SDS011;14927;51.210;6.838;2022-09-09T17:35:33;8.52;;;1.80;;
27491;SDS011;14927;51.210;6.838;2022-09-09T17:38:18;7.82;;;1.85;;
27491;SDS011;14927;51.210;6.838;2022-09-09T17:43:51;5.53;;;1.58;;
27491;SDS011;14927;51.210;6.838;2022-09-09T17:46:37;4.80;;;1.73;;
27491;SDS011;14927;51.210;6.838;2022-09-09T17:49:23;4.95;;;1.77;;
27491;SDS011;14927;51.210;6.838;2022-09-09T17:52:08;5.32;;;1.85;;
27491;SDS011;14927;51.210;6.838;2022-09-09T17:54:52;4.25;;;1.67;;
27491;SDS011;14927;51.210;6.838;2022-09-09T17:57:40;3.83;;;1.27;;
27491;SDS011;14927;51.210;6.838;2022-09-09T18:00:31;2.67;;;1.30;;
27491;SDS011;14927;51.210;6.838;2022-09-09T18:03:16;3.67;;;1.10;;
27491;SDS011;14927;51.210;6.838;2022-09-09T18:06:05;2.95;;;1.05;;
27491;SDS011;14927;51.210;6.838;2022-09-09T18:08:52;4.07;;;1.10;;
27491;SDS011;14927;51.210;6.838;2022-09-09T18:11:50;3.92;;;1.33;;
27491;SDS011;14927;51.210;6.838;2022-09-09T18:14:39;3.33;;;0.90;;
27491;SDS011;14927;51.210;6.838;2022-09-09T18:17:24;3.13;;;0.77;;
27491;SDS011;14927;51.210;6.838;2022-09-09T18:20:11;6.68;;;1.35;;
27491;SDS011;14927;51.210;6.838;2022-09-09T18:22:56;3.70;;;0.85;;
27491;SDS011;14927;51.210;6.838;2022-09-09T18:25:40;5.75;;;1.13;;
27491;SDS011;14927;51.210;6.838;2022-09-09T18:28:25;1.63;;;0.70;;
27491;SDS011;14927;51.210;6.838;2022-09-09T18:31:12;2.70;;;0.70;;
27491;SDS011;14927;51.210;6.838;2022-09-09T18:33:59;2.33;;;0.80;;
27491;SDS011;14927;51.210;6.838;2022-09-09T18:36:47;2.50;;;0.82;;
27491;SDS011;14927;51.210;6.838;2022-09-09T18:39:38;0.47;;;0.47;;
27491;SDS011;14927;51.210;6.838;2022-09-09T18:42:23;2.42;;;0.90;;
27491;SDS011;14927;51.210;6.838;2022-09-09T18:45:09;3.15;;;0.90;;
27491;SDS011;14927;51.210;6.838;2022-09-09T18:47:53;1.90;;;0.82;;
27491;SDS011;14927;51.210;6.838;2022-09-09T18:50:39;3.22;;;0.82;;
27491;SDS011;14927;51.210;6.838;2022-09-09T18:53:24;2.90;;;0.80;;
27491;SDS011;14927;51.210;6.838;2022-09-09T18:56:10;1.05;;;0.60;;
27491;SDS011;14927;51.210;6.838;2022-09-09T18:58:57;3.45;;;0.80;;
27491;SDS011;14927;51.210;6.838;2022-09-09T19:01:45;2.85;;;0.90;;
27491;SDS011;14927;51.210;6.838;2022-09-09T19:04:31;2.25;;;0.75;;
27491;SDS011;14927;51.210;6.838;2022-09-09T19:07:16;2.10;;;0.80;;
27491;SDS011;14927;51.210;6.838;2022-09-09T19:10:01;5.38;;;0.70;;
27491;SDS011;14927;51.210;6.838;2022-09-09T19:12:46;3.35;;;0.73;;
27491;SDS011;14927;51.210;6.838;2022-09-09T19:15:30;4.00;;;0.77;;
27491;SDS011;14927;51.210;6.838;2022-09-09T19:18:19;2.08;;;0.80;;
27491;SDS011;14927;51.210;6.838;2022-09-09T19:21:18;2.25;;;0.80;;
27491;SDS011;14927;51.210;6.838;2022-09-09T19:26:59;2.33;;;0.70;;
27491;SDS011;14927;51.210;6.838;2022-09-09T19:29:48;3.42;;;1.45;;
27491;SDS011;14927;51.210;6.838;2022-09-09T19:32:33;3.85;;;0.85;;
27491;SDS011;14927;51.210;6.838;2022-09-09T19:35:20;2.45;;;0.85;;